Time;durP1;ratioP1;P1;durP2;ratioP2;P2;SDS_P1;SDS_P2;PMS_P1;PMS_P2;Temp;Humidity;BMP_temperature;BMP_pressure;BME280_temperature;BME280_humidity;BME280_pressure;Samples;Min_cycle;Max_cycle;Signal;HPM_P1;HPM_P2
2022/12/03 00:02:12;;;;;;;94.85;30.67;;;;;;;;;;5019697;28;20046;-85
2022/12/03 00:04:38;;;;;;;96.10;29.85;;;;;;;;;;5020552;28;20045;-85
2022/12/03 00:07:05;;;;;;;97.55;31.88;;;;;;;;;;5002185;28;20513;-83
2022/12/03 00:09:31;;;;;;;99.05;30.58;;;;;;;;;;5003455;28;20049;-82
2022/12/03 00:11:58;;;;;;;93.75;31.75;;;;;;;;;;5018122;28;20057;-84
2022/12/03 00:14:24;;;;;;;95.82;30.73;;;;;;;;;;5025038;28;20566;-84
2022/12/03 00:16:50;;;;;;;93.82;30.13;;;;;;;;;;5009970;28;20054;-82
2022/12/03 00:19:17;;;;;;;102.93;32.72;;;;;;;;;;5019787;28;20061;-83
2022/12/03 00:21:43;;;;;;;95.43;28.92;;;;;;;;;;5017680;28;20077;-82
2022/12/03 00:24:13;;;;;;;95.97;29.50;;;;;;;;;;5037515;28;20060;-81
2022/12/03 00:26:39;;;;;;;100.90;31.58;;;;;;;;;;5034870;28;20281;-85
2022/12/03 00:29:05;;;;;;;92.25;30.20;;;;;;;;;;5034659;28;20041;-83
2022/12/03 00:31:32;;;;;;;98.63;31.05;;;;;;;;;;5017394;28;20065;-84
2022/12/03 00:33:58;;;;;;;98.05;31.15;;;;;;;;;;5017952;28;20049;-84
2022/12/03 00:36:25;;;;;;;94.32;30.45;;;;;;;;;;5034866;28;20064;-86
2022/12/03 00:38:51;;;;;;;93.05;29.92;;;;;;;;;;5035372;28;20045;-85
2022/12/03 00:41:18;;;;;;;89.63;30.17;;;;;;;;;;5035754;28;20090;-85
2022/12/03 00:43:44;;;;;;;87.80;30.00;;;;;;;;;;5017774;28;20054;-83
2022/12/03 00:46:10;;;;;;;99.93;30.45;;;;;;;;;;5034723;28;20216;-84
2022/12/03 00:48:40;;;;;;;90.97;29.88;;;;;;;;;;5019054;28;20057;-85
2022/12/03 00:51:07;;;;;;;94.82;30.17;;;;;;;;;;5035928;28;20068;-83
2022/12/03 00:53:34;;;;;;;91.80;29.48;;;;;;;;;;5041052;28;20053;-84
2022/12/03 00:56:01;;;;;;;92.13;30.08;;;;;;;;;;5033690;28;20135;-83
2022/12/03 00:58:27;;;;;;;89.10;30.27;;;;;;;;;;5033470;28;20124;-84
2022/12/03 01:00:53;;;;;;;94.88;29.83;;;;;;;;;;5011974;28;20061;-84
2022/12/03 01:03:20;;;;;;;88.78;29.17;;;;;;;;;;5013668;28;20071;-85
2022/12/03 01:05:49;;;;;;;86.82;28.83;;;;;;;;;;4996134;28;20064;-82
2022/12/03 01:08:16;;;;;;;85.20;29.20;;;;;;;;;;5014403;28;20430;-84
2022/12/03 01:10:42;;;;;;;88.50;29.42;;;;;;;;;;5014268;28;20092;-83
2022/12/03 01:13:09;;;;;;;85.57;28.67;;;;;;;;;;5014494;28;20064;-83
2022/12/03 01:15:35;;;;;;;83.28;29.65;;;;;;;;;;4996274;28;20152;-85
2022/12/03 01:18:02;;;;;;;89.10;30.38;;;;;;;;;;4996393;28;20538;-85
2022/12/03 01:20:28;;;;;;;87.05;28.48;;;;;;;;;;5007556;28;20034;-81
2022/12/03 01:22:55;;;;;;;80.80;27.65;;;;;;;;;;5034073;28;20094;-82
2022/12/03 01:25:21;;;;;;;90.10;28.52;;;;;;;;;;5033923;28;20036;-85
2022/12/03 01:27:48;;;;;;;86.28;27.88;;;;;;;;;;5033777;28;20045;-82
2022/12/03 01:30:14;;;;;;;86.82;28.05;;;;;;;;;;5003130;28;20527;-83
2022/12/03 01:32:40;;;;;;;88.15;28.88;;;;;;;;;;5010104;28;20060;-84
2022/12/03 01:35:07;;;;;;;83.13;27.30;;;;;;;;;;5019426;28;20133;-84
2022/12/03 01:37:33;;;;;;;84.22;27.73;;;;;;;;;;5019126;28;20100;-82
2022/12/03 01:40:00;;;;;;;79.70;27.40;;;;;;;;;;5024774;28;20057;-84
2022/12/03 01:42:29;;;;;;;78.63;26.25;;;;;;;;;;5035633;28;20053;-82
2022/12/03 01:44:56;;;;;;;79.35;26.50;;;;;;;;;;5036551;28;20046;-84
2022/12/03 01:47:43;;;;;;;78.60;26.23;;;;;;;;;;5035874;28;20049;-84
2022/12/03 01:50:25;;;;;;;75.85;26.23;;;;;;;;;;5033676;28;20049;-84
2022/12/03 01:52:53;;;;;;;78.32;25.23;;;;;;;;;;5034505;28;20053;-85
2022/12/03 01:55:20;;;;;;;74.07;25.30;;;;;;;;;;5016809;28;20046;-86
2022/12/03 01:57:48;;;;;;;75.97;27.50;;;;;;;;;;5034093;28;20049;-84
2022/12/03 02:00:21;;;;;;;69.95;24.75;;;;;;;;;;5037586;28;20049;-83
2022/12/03 02:02:51;;;;;;;71.35;24.20;;;;;;;;;;5018921;28;20049;-83
2022/12/03 02:05:19;;;;;;;75.40;25.80;;;;;;;;;;5018123;28;20528;-84
2022/12/03 02:07:45;;;;;;;67.82;25.23;;;;;;;;;;5041436;28;20120;-85
2022/12/03 02:10:13;;;;;;;72.43;24.88;;;;;;;;;;5024659;28;20057;-83
2022/12/03 02:12:42;;;;;;;70.22;24.67;;;;;;;;;;5040866;28;20045;-85
2022/12/03 02:15:09;;;;;;;67.63;23.90;;;;;;;;;;5038282;28;20286;-86
2022/12/03 02:17:36;;;;;;;70.53;24.45;;;;;;;;;;5037574;28;20132;-85
2022/12/03 02:20:04;;;;;;;72.18;24.27;;;;;;;;;;5035901;28;20056;-86
2022/12/03 02:22:39;;;;;;;69.22;23.73;;;;;;;;;;5016764;28;20053;-84
2022/12/03 02:25:17;;;;;;;68.18;24.00;;;;;;;;;;5017507;28;20050;-85
2022/12/03 02:27:44;;;;;;;71.03;25.13;;;;;;;;;;5034443;28;20049;-87
2022/12/03 02:30:12;;;;;;;69.70;23.45;;;;;;;;;;5034660;28;20042;-83
2022/12/03 02:32:39;;;;;;;69.72;24.30;;;;;;;;;;5034575;28;20505;-84
2022/12/03 02:35:11;;;;;;;73.32;25.27;;;;;;;;;;5034552;28;20085;-84
2022/12/03 02:37:37;;;;;;;65.53;23.63;;;;;;;;;;5033665;28;20055;-85
2022/12/03 02:40:07;;;;;;;65.30;23.65;;;;;;;;;;5034285;28;20045;-84
2022/12/03 02:42:34;;;;;;;67.22;23.98;;;;;;;;;;5031467;28;20285;-84
2022/12/03 02:45:05;;;;;;;65.80;23.05;;;;;;;;;;5033309;28;20128;-83
2022/12/03 02:47:34;;;;;;;72.32;24.17;;;;;;;;;;5035750;28;20049;-86
2022/12/03 02:50:01;;;;;;;69.57;23.70;;;;;;;;;;5034950;28;20053;-84
2022/12/03 02:52:27;;;;;;;63.13;23.77;;;;;;;;;;5034610;28;20053;-84
2022/12/03 02:54:54;;;;;;;69.63;25.25;;;;;;;;;;5035735;28;20422;-84
2022/12/03 02:57:29;;;;;;;66.97;23.20;;;;;;;;;;5036359;28;20053;-83
2022/12/03 02:59:58;;;;;;;68.10;23.20;;;;;;;;;;5040451;28;20049;-84
2022/12/03 03:02:27;;;;;;;68.65;23.65;;;;;;;;;;5042251;28;20662;-84
2022/12/03 03:04:54;;;;;;;67.05;23.85;;;;;;;;;;5020266;28;20057;-85
2022/12/03 03:07:21;;;;;;;71.00;23.70;;;;;;;;;;5018993;28;20141;-85
2022/12/03 03:09:47;;;;;;;64.25;23.05;;;;;;;;;;5035868;28;20061;-85
2022/12/03 03:12:14;;;;;;;59.60;21.65;;;;;;;;;;5035312;28;20159;-84
2022/12/03 03:14:40;;;;;;;64.05;22.63;;;;;;;;;;5017963;28;20053;-84
2022/12/03 03:17:07;;;;;;;71.00;24.45;;;;;;;;;;5035946;28;20235;-86
2022/12/03 03:19:33;;;;;;;65.80;22.77;;;;;;;;;;5036041;28;20553;-85
2022/12/03 03:22:02;;;;;;;64.97;23.58;;;;;;;;;;5017268;28;20156;-84
2022/12/03 03:24:29;;;;;;;58.95;22.58;;;;;;;;;;5035288;28;20053;-84
2022/12/03 03:26:55;;;;;;;67.38;23.95;;;;;;;;;;5035151;28;20045;-85
2022/12/03 03:29:22;;;;;;;66.53;23.13;;;;;;;;;;5021385;28;20493;-83
2022/12/03 03:31:48;;;;;;;64.13;22.90;;;;;;;;;;5039900;28;20348;-86
2022/12/03 03:34:15;;;;;;;60.97;21.75;;;;;;;;;;5037380;28;20068;-84
2022/12/03 03:36:42;;;;;;;66.65;23.50;;;;;;;;;;5035614;28;20128;-86
2022/12/03 03:39:08;;;;;;;72.38;24.23;;;;;;;;;;5018942;28;20053;-86
2022/12/03 03:41:35;;;;;;;67.13;22.88;;;;;;;;;;5033974;28;20049;-84
2022/12/03 03:44:03;;;;;;;70.60;24.60;;;;;;;;;;5017998;28;20049;-84
2022/12/03 03:46:32;;;;;;;65.07;22.63;;;;;;;;;;5017628;28;20087;-86
2022/12/03 03:48:58;;;;;;;64.80;22.58;;;;;;;;;;5025260;28;20476;-86
2022/12/03 03:51:27;;;;;;;66.88;22.90;;;;;;;;;;5039788;28;20049;-86
2022/12/03 03:53:54;;;;;;;67.50;22.95;;;;;;;;;;5021692;28;20072;-85
2022/12/03 03:56:20;;;;;;;62.20;22.88;;;;;;;;;;5030124;28;20060;-85
2022/12/03 03:58:47;;;;;;;66.75;22.42;;;;;;;;;;5014908;28;20052;-86
2022/12/03 04:01:13;;;;;;;66.05;22.45;;;;;;;;;;5040903;28;20061;-85
2022/12/03 04:03:40;;;;;;;54.72;22.25;;;;;;;;;;5021562;28;20132;-84
2022/12/03 04:06:07;;;;;;;61.22;22.45;;;;;;;;;;5013207;28;20076;-86
2022/12/03 04:08:33;;;;;;;62.10;22.38;;;;;;;;;;5009110;28;20096;-87
2022/12/03 04:13:45;;;;;;;65.03;22.77;;;;;;;;;;5034486;28;20092;-86
2022/12/03 04:16:11;;;;;;;65.05;22.27;;;;;;;;;;5033886;28;20081;-85
2022/12/03 04:18:41;;;;;;;66.20;24.27;;;;;;;;;;5017552;28;20061;-85
2022/12/03 04:23:54;;;;;;;57.72;21.42;;;;;;;;;;5034943;28;20049;-85
2022/12/03 04:29:06;;;;;;;61.80;21.73;;;;;;;;;;5034989;28;20066;-86
2022/12/03 04:37:02;;;;;;;74.60;22.83;;;;;;;;;;5047529;28;20445;-83
2022/12/03 04:39:29;;;;;;;63.10;22.63;;;;;;;;;;5025884;28;20508;-85
2022/12/03 04:41:55;;;;;;;70.40;23.83;;;;;;;;;;5039708;28;20414;-85
2022/12/03 04:44:37;;;;;;;69.03;23.30;;;;;;;;;;5033282;28;20080;-87
2022/12/03 04:47:06;;;;;;;70.20;24.55;;;;;;;;;;5033867;28;20510;-84
2022/12/03 04:49:35;;;;;;;69.85;24.17;;;;;;;;;;5016879;28;20118;-85
2022/12/03 04:52:01;;;;;;;75.20;25.13;;;;;;;;;;5035045;28;20073;-85
2022/12/03 04:54:28;;;;;;;70.00;23.55;;;;;;;;;;5035286;28;20049;-87
2022/12/03 04:56:55;;;;;;;75.05;25.58;;;;;;;;;;5045105;28;20105;-83
2022/12/03 04:59:21;;;;;;;70.82;24.42;;;;;;;;;;5053938;28;20120;-83
2022/12/03 05:01:47;;;;;;;73.32;23.77;;;;;;;;;;5033595;28;20124;-85
2022/12/03 05:04:14;;;;;;;81.40;25.90;;;;;;;;;;5022950;28;20049;-86
2022/12/03 05:06:41;;;;;;;70.20;25.33;;;;;;;;;;5043059;28;20056;-84
2022/12/03 05:09:08;;;;;;;80.95;26.63;;;;;;;;;;5024538;28;20434;-85
2022/12/03 05:11:34;;;;;;;75.18;26.23;;;;;;;;;;5043614;28;20151;-86
2022/12/03 05:14:01;;;;;;;74.55;24.48;;;;;;;;;;5025397;28;20080;-87
2022/12/03 05:16:27;;;;;;;77.00;26.58;;;;;;;;;;5042243;28;20049;-85
2022/12/03 05:18:54;;;;;;;73.97;23.80;;;;;;;;;;5025183;28;20123;-86
2022/12/03 05:21:20;;;;;;;74.13;25.35;;;;;;;;;;5039440;28;20057;-88
2022/12/03 05:23:47;;;;;;;78.18;25.08;;;;;;;;;;5027432;28;20105;-84
2022/12/03 05:26:13;;;;;;;77.20;25.63;;;;;;;;;;5038854;28;20056;-86
2022/12/03 05:28:40;;;;;;;72.30;23.10;;;;;;;;;;5025547;28;20051;-86
2022/12/03 05:31:21;;;;;;;81.00;26.20;;;;;;;;;;4989520;28;20059;-85
2022/12/03 05:33:48;;;;;;;76.80;25.27;;;;;;;;;;5039716;28;20068;-85
2022/12/03 05:36:15;;;;;;;68.03;23.88;;;;;;;;;;5038431;28;20049;-88
2022/12/03 05:38:41;;;;;;;70.93;24.45;;;;;;;;;;5020776;28;20060;-87
2022/12/03 05:43:53;;;;;;;73.15;25.85;;;;;;;;;;5037519;28;20105;-87
2022/12/03 05:46:19;;;;;;;70.70;24.35;;;;;;;;;;5038148;28;20049;-88
2022/12/03 05:48:46;;;;;;;69.30;24.13;;;;;;;;;;5037500;28;20069;-87
2022/12/03 05:51:12;;;;;;;70.65;23.48;;;;;;;;;;5019562;28;20068;-84
2022/12/03 05:53:39;;;;;;;71.70;24.23;;;;;;;;;;5036836;28;20067;-84
2022/12/03 05:56:05;;;;;;;69.22;24.48;;;;;;;;;;5028793;28;20049;-86
2022/12/03 05:58:32;;;;;;;69.38;23.45;;;;;;;;;;5017523;28;20050;-87
2022/12/03 06:00:58;;;;;;;71.43;25.52;;;;;;;;;;5036314;28;20087;-85
2022/12/03 06:03:25;;;;;;;70.03;24.02;;;;;;;;;;5037091;28;20046;-84
2022/12/03 06:05:52;;;;;;;70.45;23.08;;;;;;;;;;5038052;28;20136;-85
2022/12/03 06:08:18;;;;;;;64.28;23.27;;;;;;;;;;5018627;28;20402;-83
2022/12/03 06:10:45;;;;;;;70.53;24.95;;;;;;;;;;5006572;28;20065;-82
2022/12/03 06:13:11;;;;;;;71.88;24.05;;;;;;;;;;5036288;28;20049;-82
2022/12/03 06:15:38;;;;;;;72.10;24.48;;;;;;;;;;5038736;28;20057;-86
2022/12/03 06:18:09;;;;;;;63.10;23.80;;;;;;;;;;5034451;28;20480;-85
2022/12/03 06:20:35;;;;;;;68.82;23.40;;;;;;;;;;5019371;28;20076;-85
2022/12/03 06:23:02;;;;;;;75.63;24.55;;;;;;;;;;5021598;28;20120;-86
2022/12/03 06:25:28;;;;;;;65.95;23.60;;;;;;;;;;5030149;28;20105;-83
2022/12/03 06:27:55;;;;;;;69.63;24.10;;;;;;;;;;5032747;28;20128;-87
2022/12/03 06:30:21;;;;;;;69.18;24.48;;;;;;;;;;5046475;28;20056;-83
2022/12/03 06:32:48;;;;;;;67.13;23.88;;;;;;;;;;5043611;28;20482;-85
2022/12/03 06:35:14;;;;;;;73.97;23.90;;;;;;;;;;5022852;28;20145;-87
2022/12/03 06:37:40;;;;;;;75.32;25.65;;;;;;;;;;5035286;28;20052;-83
2022/12/03 06:40:12;;;;;;;71.65;24.58;;;;;;;;;;5035481;28;20104;-85
2022/12/03 06:43:21;;;;;;;;;;;;;;;;;;;;;
2022/12/03 06:46:11;;;;;;;68.30;22.83;;;;;;;;;;5008860;28;20075;-84
2022/12/03 06:48:46;;;;;;;75.15;25.27;;;;;;;;;;5040703;28;20053;-85
2022/12/03 06:51:12;;;;;;;;;;;;;;;;;;5035821;28;20172;-81
2022/12/03 06:53:39;;;;;;;74.78;23.88;;;;;;;;;;5022779;28;19948;-82
2022/12/03 06:56:05;;;;;;;70.03;23.48;;;;;;;;;;5014112;28;20053;-83
2022/12/03 06:58:32;;;;;;;70.95;24.33;;;;;;;;;;5029073;28;20577;-82
2022/12/03 07:00:58;;;;;;;67.82;23.70;;;;;;;;;;5009738;28;20057;-84
2022/12/03 07:03:28;;;;;;;67.57;23.67;;;;;;;;;;5009588;28;20046;-85
2022/12/03 07:05:54;;;;;;;67.43;23.67;;;;;;;;;;5019994;28;20507;-82
2022/12/03 07:08:21;;;;;;;66.78;23.83;;;;;;;;;;5030860;28;20472;-82
2022/12/03 07:10:47;;;;;;;72.65;24.52;;;;;;;;;;5037621;28;20056;-82
2022/12/03 07:13:13;;;;;;;68.68;24.98;;;;;;;;;;5019935;28;20057;-82
2022/12/03 07:15:40;;;;;;;75.35;25.95;;;;;;;;;;5013770;28;20552;-84
2022/12/03 07:18:06;;;;;;;74.50;26.63;;;;;;;;;;5030578;28;20061;-83
2022/12/03 07:20:33;;;;;;;78.40;26.52;;;;;;;;;;5032707;28;20064;-83
2022/12/03 07:22:59;;;;;;;64.55;24.13;;;;;;;;;;5033143;28;20049;-82
2022/12/03 07:25:26;;;;;;;67.57;24.85;;;;;;;;;;5024796;28;20134;-84
2022/12/03 07:27:52;;;;;;;73.22;27.02;;;;;;;;;;5008449;28;20053;-83
2022/12/03 07:30:18;;;;;;;77.63;26.95;;;;;;;;;;5032002;28;20475;-83
2022/12/03 07:32:45;;;;;;;73.82;27.00;;;;;;;;;;5031036;28;20045;-83
2022/12/03 07:35:14;;;;;;;66.57;24.02;;;;;;;;;;5007470;28;20524;-81
2022/12/03 07:37:40;;;;;;;62.95;22.92;;;;;;;;;;5025807;28;20410;-83
2022/12/03 07:40:07;;;;;;;63.67;23.00;;;;;;;;;;5034992;28;20046;-82
2022/12/03 07:42:33;;;;;;;68.72;24.92;;;;;;;;;;5032522;28;20080;-83
2022/12/03 07:44:59;;;;;;;65.00;22.65;;;;;;;;;;5015215;28;20068;-83
2022/12/03 07:47:26;;;;;;;65.20;22.70;;;;;;;;;;5027308;28;20046;-84
2022/12/03 07:49:52;;;;;;;61.10;23.90;;;;;;;;;;5029426;28;20045;-84
2022/12/03 07:52:19;;;;;;;63.58;23.02;;;;;;;;;;5032575;28;20059;-85
2022/12/03 07:54:45;;;;;;;59.83;22.27;;;;;;;;;;5033703;28;20062;-82
2022/12/03 07:57:11;;;;;;;62.70;23.25;;;;;;;;;;5030320;28;20112;-84
2022/12/03 07:59:38;;;;;;;59.60;22.20;;;;;;;;;;5008053;28;20053;-84
2022/12/03 08:02:05;;;;;;;61.20;22.20;;;;;;;;;;5041918;28;20045;-80
2022/12/03 08:04:31;;;;;;;58.78;21.95;;;;;;;;;;5049310;28;20029;-81
2022/12/03 08:06:58;;;;;;;63.10;23.15;;;;;;;;;;5028076;28;20050;-80
2022/12/03 08:09:24;;;;;;;68.20;23.83;;;;;;;;;;5040693;28;20049;-81
2022/12/03 08:11:52;;;;;;;68.32;23.60;;;;;;;;;;5022241;28;20057;-84
2022/12/03 08:14:19;;;;;;;66.90;22.90;;;;;;;;;;5017200;28;20049;-81
2022/12/03 08:16:46;;;;;;;64.22;22.25;;;;;;;;;;5017950;28;20128;-83
2022/12/03 08:19:14;;;;;;;64.65;22.67;;;;;;;;;;5005347;28;20713;-81
2022/12/03 08:21:40;;;;;;;79.25;24.35;;;;;;;;;;5000258;28;20064;-83
2022/12/03 08:24:11;;;;;;;65.57;23.80;;;;;;;;;;5027377;28;20053;-82
2022/12/03 08:26:38;;;;;;;71.72;24.60;;;;;;;;;;5033900;28;20495;-83
2022/12/03 08:29:09;;;;;;;65.53;24.15;;;;;;;;;;5033404;28;20055;-83
2022/12/03 08:31:35;;;;;;;68.15;23.25;;;;;;;;;;5038848;28;20053;-84
2022/12/03 08:34:21;;;;;;;73.53;24.60;;;;;;;;;;5016392;28;20034;-81
2022/12/03 08:36:58;;;;;;;72.32;25.25;;;;;;;;;;5037004;28;20041;-81
2022/12/03 08:39:34;;;;;;;64.32;22.90;;;;;;;;;;5021495;28;20052;-82
2022/12/03 08:44:49;;;;;;;68.55;23.40;;;;;;;;;;5036732;28;20057;-86
2022/12/03 08:47:18;;;;;;;72.60;24.23;;;;;;;;;;5016195;28;20265;-83
2022/12/03 08:50:08;;;;;;;73.72;25.85;;;;;;;;;;5019324;28;20053;-85
2022/12/03 08:52:35;;;;;;;78.50;25.23;;;;;;;;;;5015132;28;20057;-83
2022/12/03 08:55:20;;;;;;;67.22;23.40;;;;;;;;;;5035529;28;20097;-84
2022/12/03 08:57:46;;;;;;;72.53;24.92;;;;;;;;;;5013206;28;20113;-82
2022/12/03 09:00:16;;;;;;;73.65;25.50;;;;;;;;;;5016433;28;20540;-84
2022/12/03 09:02:48;;;;;;;79.18;26.27;;;;;;;;;;5037557;28;20049;-84
2022/12/03 09:05:40;;;;;;;73.53;25.08;;;;;;;;;;5036490;28;20295;-83
2022/12/03 09:08:07;;;;;;;74.85;24.88;;;;;;;;;;5015966;28;20053;-83
2022/12/03 09:10:33;;;;;;;70.05;25.05;;;;;;;;;;5038633;28;20076;-82
2022/12/03 09:12:59;;;;;;;69.57;26.42;;;;;;;;;;5037415;28;20046;-82
2022/12/03 09:15:27;;;;;;;75.38;26.38;;;;;;;;;;5038119;28;20045;-83
2022/12/03 09:17:53;;;;;;;72.65;25.10;;;;;;;;;;5018493;28;20577;-80
2022/12/03 09:20:19;;;;;;;68.55;25.20;;;;;;;;;;5016985;28;20080;-81
2022/12/03 09:22:46;;;;;;;73.32;25.08;;;;;;;;;;5018584;28;20109;-82
2022/12/03 09:25:12;;;;;;;68.05;25.30;;;;;;;;;;5022771;28;20050;-81
2022/12/03 09:27:39;;;;;;;69.80;26.13;;;;;;;;;;5025876;28;20053;-82
2022/12/03 09:30:05;;;;;;;75.15;26.38;;;;;;;;;;5010488;28;20041;-83
2022/12/03 09:32:32;;;;;;;74.57;26.15;;;;;;;;;;5014226;28;20105;-83
2022/12/03 09:34:58;;;;;;;67.18;25.35;;;;;;;;;;5001244;28;20057;-81
2022/12/03 09:37:24;;;;;;;75.38;25.02;;;;;;;;;;5025997;28;20056;-83
2022/12/03 09:39:51;;;;;;;71.75;26.65;;;;;;;;;;5021426;28;20053;-84
2022/12/03 09:42:17;;;;;;;74.57;25.67;;;;;;;;;;5030404;28;20069;-82
2022/12/03 09:44:44;;;;;;;75.38;24.75;;;;;;;;;;5032172;28;20053;-81
2022/12/03 09:47:10;;;;;;;72.63;24.33;;;;;;;;;;5018416;28;20068;-83
2022/12/03 09:49:37;;;;;;;70.90;24.73;;;;;;;;;;5029330;28;20057;-83
2022/12/03 09:52:04;;;;;;;63.90;23.90;;;;;;;;;;5027915;28;20045;-84
2022/12/03 09:54:31;;;;;;;67.07;23.98;;;;;;;;;;5032131;28;20064;-83
2022/12/03 09:56:59;;;;;;;63.53;22.58;;;;;;;;;;5036368;28;20049;-82
2022/12/03 09:59:29;;;;;;;62.35;23.80;;;;;;;;;;5032005;28;20045;-84
2022/12/03 10:01:56;;;;;;;62.08;22.45;;;;;;;;;;5029818;28;20496;-81
2022/12/03 10:04:23;;;;;;;66.90;24.95;;;;;;;;;;5023876;28;20042;-82
2022/12/03 10:06:50;;;;;;;65.38;24.05;;;;;;;;;;5020892;28;20041;-82
2022/12/03 10:09:21;;;;;;;66.93;23.90;;;;;;;;;;5022795;28;20068;-81
2022/12/03 10:11:47;;;;;;;70.30;24.83;;;;;;;;;;5019055;28;20046;-82
2022/12/03 10:14:16;;;;;;;70.00;24.08;;;;;;;;;;5014698;28;20524;-81
2022/12/03 10:16:42;;;;;;;68.13;22.88;;;;;;;;;;5036382;28;20612;-85
2022/12/03 10:19:16;;;;;;;64.90;24.02;;;;;;;;;;5025397;28;20064;-81
2022/12/03 10:21:42;;;;;;;66.97;23.92;;;;;;;;;;5018566;28;20053;-81
2022/12/03 10:24:15;;;;;;;71.05;24.73;;;;;;;;;;5029196;28;20050;-81
2022/12/03 10:26:42;;;;;;;62.80;23.23;;;;;;;;;;5008702;28;20073;-85
2022/12/03 10:29:13;;;;;;;67.68;23.95;;;;;;;;;;5014215;28;20046;-79
2022/12/03 10:31:42;;;;;;;77.65;26.42;;;;;;;;;;5024607;28;20054;-84
2022/12/03 10:34:10;;;;;;;68.88;25.85;;;;;;;;;;5024133;28;20129;-83
2022/12/03 10:36:37;;;;;;;68.82;23.88;;;;;;;;;;5013705;28;20590;-84
2022/12/03 10:39:08;;;;;;;70.88;25.05;;;;;;;;;;5014015;28;20058;-82
2022/12/03 10:41:35;;;;;;;72.32;25.35;;;;;;;;;;5008777;28;20073;-79
2022/12/03 10:44:13;;;;;;;72.15;25.25;;;;;;;;;;5015861;28;20049;-77
2022/12/03 10:46:40;;;;;;;65.28;22.33;;;;;;;;;;5018685;28;20056;-82
2022/12/03 10:49:08;;;;;;;75.80;25.85;;;;;;;;;;5036565;28;20530;-83
2022/12/03 10:51:34;;;;;;;61.85;23.45;;;;;;;;;;5020938;28;20053;-80
2022/12/03 10:54:01;;;;;;;67.35;24.52;;;;;;;;;;5034643;28;20574;-81
2022/12/03 10:56:28;;;;;;;65.93;23.70;;;;;;;;;;5015754;28;20060;-83
2022/12/03 10:58:54;;;;;;;60.83;23.33;;;;;;;;;;5014574;28;20055;-84
2022/12/03 11:01:21;;;;;;;64.45;23.25;;;;;;;;;;4998052;28;20061;-83
2022/12/03 11:03:48;;;;;;;65.20;23.40;;;;;;;;;;5033854;28;20053;-83
2022/12/03 11:06:19;;;;;;;61.58;23.20;;;;;;;;;;5010043;28;20046;-83
2022/12/03 11:08:47;;;;;;;65.28;23.90;;;;;;;;;;4999091;28;20069;-85
2022/12/03 11:11:23;;;;;;;57.35;22.65;;;;;;;;;;5012530;28;20061;-84
2022/12/03 11:13:53;;;;;;;62.22;23.15;;;;;;;;;;5015246;28;20060;-83
2022/12/03 11:16:38;;;;;;;61.78;22.90;;;;;;;;;;5032759;28;20063;-82
2022/12/03 11:19:13;;;;;;;62.30;23.60;;;;;;;;;;5009619;28;20115;-85
2022/12/03 11:21:57;;;;;;;62.58;22.73;;;;;;;;;;5035999;28;20241;-84
2022/12/03 11:24:24;;;;;;;58.47;22.05;;;;;;;;;;5017397;28;20057;-83
2022/12/03 11:26:50;;;;;;;59.75;22.67;;;;;;;;;;4997831;28;20054;-83
2022/12/03 11:29:37;;;;;;;54.10;21.25;;;;;;;;;;5016884;28;20507;-84
2022/12/03 11:32:05;;;;;;;64.28;22.33;;;;;;;;;;5007769;28;20081;-81
2022/12/03 11:34:32;;;;;;;57.97;21.92;;;;;;;;;;5003168;28;20356;-83
2022/12/03 11:37:10;;;;;;;61.22;22.10;;;;;;;;;;5021998;28;20059;-82
2022/12/03 11:39:49;;;;;;;60.35;21.60;;;;;;;;;;5042998;28;20048;-82
2022/12/03 11:42:25;;;;;;;60.78;22.13;;;;;;;;;;5032785;28;20057;-81
2022/12/03 11:45:10;;;;;;;57.38;22.52;;;;;;;;;;5035570;28;20160;-81
2022/12/03 11:47:39;;;;;;;56.88;22.00;;;;;;;;;;5048604;28;20113;-83
2022/12/03 11:50:15;;;;;;;57.80;22.02;;;;;;;;;;5017432;28;20045;-84
2022/12/03 11:52:42;;;;;;;57.38;22.10;;;;;;;;;;5027057;28;20072;-81
2022/12/03 11:55:17;;;;;;;57.97;21.73;;;;;;;;;;5040013;28;20055;-84
2022/12/03 11:57:44;;;;;;;60.22;22.65;;;;;;;;;;5051041;28;20034;-83
2022/12/03 12:00:18;;;;;;;63.03;22.17;;;;;;;;;;5035939;28;20487;-84
2022/12/03 12:02:50;;;;;;;62.17;22.63;;;;;;;;;;5021298;28;20616;-83
2022/12/03 12:05:25;;;;;;;64.10;21.45;;;;;;;;;;5005184;28;20054;-88
2022/12/03 12:07:57;;;;;;;68.88;24.38;;;;;;;;;;5003365;28;20041;-86
2022/12/03 12:10:55;;;;;;;68.15;23.30;;;;;;;;;;5022832;28;20049;-88
2022/12/03 12:14:13;;;;;;;63.80;21.83;;;;;;;;;;5023302;28;20050;-90
2022/12/03 12:17:22;;;;;;;63.08;22.10;;;;;;;;;;5012087;28;20041;-83
2022/12/03 12:19:48;;;;;;;70.40;23.67;;;;;;;;;;5031276;28;20057;-86
2022/12/03 12:22:33;;;;;;;65.75;22.00;;;;;;;;;;5031270;28;20112;-88
2022/12/03 12:25:32;;;;;;;64.05;23.33;;;;;;;;;;5017206;28;20053;-88
2022/12/03 12:31:32;;;;;;;67.10;23.52;;;;;;;;;;5032998;28;20438;-84
2022/12/03 12:33:59;;;;;;;68.95;22.70;;;;;;;;;;5014230;28;20076;-84
2022/12/03 12:36:54;;;;;;;71.85;24.15;;;;;;;;;;5030132;28;20053;-88
2022/12/03 12:39:58;;;;;;;64.15;22.70;;;;;;;;;;5007972;28;20136;-86
2022/12/03 12:43:22;;;;;;;71.88;23.08;;;;;;;;;;4919848;29;20059;-85
2022/12/03 12:47:05;;;;;;;;;;;;;;;;;;;;;
2022/12/03 12:49:19;;;;;;;65.00;23.02;;;;;;;;;;5009641;28;20042;-84
2022/12/03 12:51:48;;;;;;;67.38;23.80;;;;;;;;;;5013560;28;20057;-85
2022/12/03 12:54:15;;;;;;;71.97;24.15;;;;;;;;;;5011524;28;20052;-84
2022/12/03 12:56:44;;;;;;;65.63;24.25;;;;;;;;;;5030729;28;20148;-84
2022/12/03 12:59:12;;;;;;;72.22;22.95;;;;;;;;;;5013681;28;20056;-86
2022/12/03 13:01:39;;;;;;;72.10;23.73;;;;;;;;;;5010818;28;20050;-85
2022/12/03 13:04:11;;;;;;;71.70;25.50;;;;;;;;;;5031517;28;20050;-84
2022/12/03 13:06:37;;;;;;;78.75;26.42;;;;;;;;;;5028124;28;20499;-84
2022/12/03 13:09:07;;;;;;;72.97;24.30;;;;;;;;;;5018917;28;20072;-84
2022/12/03 13:11:34;;;;;;;69.13;24.33;;;;;;;;;;5024052;28;20060;-85
2022/12/03 13:14:13;;;;;;;80.07;25.75;;;;;;;;;;5023515;28;20052;-84
2022/12/03 13:16:43;;;;;;;73.65;25.17;;;;;;;;;;5031814;28;20054;-84
2022/12/03 13:19:26;;;;;;;75.13;24.60;;;;;;;;;;5037679;28;20069;-85
2022/12/03 13:21:53;;;;;;;73.93;24.67;;;;;;;;;;5020628;28;20437;-86
2022/12/03 13:24:32;;;;;;;75.63;26.10;;;;;;;;;;5016787;28;20129;-83
2022/12/03 13:27:31;;;;;;;77.38;25.33;;;;;;;;;;5026998;28;20057;-84
2022/12/03 13:29:59;;;;;;;75.55;25.55;;;;;;;;;;5015054;28;20049;-83
2022/12/03 13:32:33;;;;;;;78.53;27.10;;;;;;;;;;5027749;28;20056;-89
2022/12/03 13:35:05;;;;;;;81.22;26.50;;;;;;;;;;5031317;28;20049;-88
2022/12/03 13:37:31;;;;;;;78.60;26.52;;;;;;;;;;5028666;28;20073;-82
2022/12/03 13:40:07;;;;;;;85.00;27.35;;;;;;;;;;5023481;28;20056;-83
2022/12/03 13:43:08;;;;;;;80.63;27.00;;;;;;;;;;5024511;28;20544;-88
2022/12/03 13:45:36;;;;;;;78.65;25.85;;;;;;;;;;4997881;28;20046;-83
2022/12/03 13:48:24;;;;;;;75.65;25.65;;;;;;;;;;5011992;28;20076;-84
2022/12/03 13:51:26;;;;;;;81.47;25.63;;;;;;;;;;5007105;28;20117;-87
2022/12/03 13:53:53;;;;;;;79.05;26.73;;;;;;;;;;4994671;28;20136;-83
2022/12/03 13:56:38;;;;;;;78.55;26.13;;;;;;;;;;5001392;28;20050;-84
2022/12/03 13:59:39;;;;;;;;;;;;;;;;;;;;;
2022/12/03 14:02:29;;;;;;;77.85;24.83;;;;;;;;;;5007849;28;20070;-84
2022/12/03 14:04:58;;;;;;;77.70;25.55;;;;;;;;;;5011916;28;20076;-83
2022/12/03 14:07:28;;;;;;;82.28;27.67;;;;;;;;;;5027556;28;20077;-84
2022/12/03 14:10:18;;;;;;;82.28;26.13;;;;;;;;;;5001552;28;20054;-89
2022/12/03 14:12:46;;;;;;;75.85;25.00;;;;;;;;;;5034892;28;20049;-86
2022/12/03 14:15:13;;;;;;;84.13;27.52;;;;;;;;;;5006415;23;20205;-84
2022/12/03 14:17:39;;;;;;;78.32;25.50;;;;;;;;;;4973806;28;20225;-85
2022/12/03 14:20:06;;;;;;;80.93;26.20;;;;;;;;;;4972662;28;20069;-83
2022/12/03 14:22:36;;;;;;;78.35;24.77;;;;;;;;;;4971373;28;20523;-84
2022/12/03 14:25:03;;;;;;;68.93;24.70;;;;;;;;;;4972800;28;20035;-83
2022/12/03 14:27:30;;;;;;;83.55;24.88;;;;;;;;;;4956115;28;20492;-82
2022/12/03 14:29:56;;;;;;;70.47;24.38;;;;;;;;;;4952504;29;20090;-83
2022/12/03 14:32:23;;;;;;;80.13;25.33;;;;;;;;;;4954752;28;20046;-83
2022/12/03 14:34:49;;;;;;;82.03;26.08;;;;;;;;;;4968737;28;20062;-84
2022/12/03 14:37:16;;;;;;;74.32;25.10;;;;;;;;;;4957742;28;20476;-82
2022/12/03 14:39:43;;;;;;;77.10;24.85;;;;;;;;;;4949910;28;20055;-83
2022/12/03 14:42:12;;;;;;;77.38;24.95;;;;;;;;;;4950477;28;20256;-82
2022/12/03 14:44:46;;;;;;;77.40;24.30;;;;;;;;;;4943730;28;20066;-82
2022/12/03 14:47:13;;;;;;;70.13;24.05;;;;;;;;;;4951216;28;20134;-84
2022/12/03 14:49:39;;;;;;;72.65;24.30;;;;;;;;;;4948848;28;20487;-83
2022/12/03 14:52:06;;;;;;;74.43;24.40;;;;;;;;;;4952146;28;20073;-82
2022/12/03 14:54:41;;;;;;;81.88;25.85;;;;;;;;;;4948119;28;20051;-82
2022/12/03 14:57:08;;;;;;;79.15;26.10;;;;;;;;;;4949982;29;20055;-83
2022/12/03 14:59:35;;;;;;;77.95;26.38;;;;;;;;;;4953817;28;20054;-83
2022/12/03 15:02:01;;;;;;;84.65;27.83;;;;;;;;;;4956730;28;20388;-80